Time;durP1;ratioP1;P1;durP2;ratioP2;P2;SDS_P1;SDS_P2;PMS_P1;PMS_P2;Temp;Humidity;BMP_temperature;BMP_pressure;BME280_temperature;BME280_humidity;BME280_pressure;Samples;Min_cycle;Max_cycle;Signal;HPM_P1;HPM_P2
2022/10/14 00:02:05;;;;;;;15.33;8.40;;;;;;;12.75;97.32;99856.88;5046611;28;20265;-85
2022/10/14 00:04:30;;;;;;;16.83;9.75;;;;;;;12.82;97.01;99851.91;5043271;28;20261;-84
2022/10/14 00:06:56;;;;;;;11.90;7.35;;;;;;;12.67;97.69;99845.38;5040768;28;20041;-84
2022/10/14 00:09:21;;;;;;;14.03;8.20;;;;;;;12.77;97.33;99846.47;5043473;28;20032;-84
2022/10/14 00:11:46;;;;;;;26.30;11.68;;;;;;;12.67;97.64;99848.09;5047063;28;20258;-84
2022/10/14 00:14:16;;;;;;;16.27;8.47;;;;;;;12.61;98.22;99830.91;5042814;28;20033;-84
2022/10/14 00:16:43;;;;;;;15.55;8.68;;;;;;;12.63;97.71;99838.81;5039781;28;20341;-77
2022/10/14 00:19:09;;;;;;;19.05;10.95;;;;;;;12.62;98.05;99845.41;5044524;28;20033;-77
2022/10/14 00:21:37;;;;;;;22.75;9.23;;;;;;;12.61;98.27;99846.47;5041613;28;20041;-84
2022/10/14 00:24:03;;;;;;;16.58;9.43;;;;;;;12.65;97.86;99847.56;5042945;28;20033;-84
2022/10/14 00:26:31;;;;;;;15.27;9.35;;;;;;;12.62;98.24;99842.66;5043150;28;20105;-84
2022/10/14 00:28:58;;;;;;;18.60;9.23;;;;;;;12.73;97.45;99844.28;5040377;28;20025;-84
2022/10/14 00:31:23;;;;;;;17.15;10.85;;;;;;;12.79;97.41;99842.38;5042346;28;20094;-81
2022/10/14 00:33:48;;;;;;;13.85;9.13;;;;;;;12.70;97.42;99841.28;5039425;28;20132;-81
2022/10/14 00:36:17;;;;;;;16.42;10.35;;;;;;;12.70;97.29;99844.84;5042551;28;20037;-84
2022/10/14 00:38:44;;;;;;;17.38;10.27;;;;;;;12.73;97.61;99841.53;5040509;28;20025;-84
2022/10/14 00:41:12;;;;;;;22.48;9.55;;;;;;;12.72;97.72;99837.16;5043133;28;20025;-84
2022/10/14 00:43:51;;;;;;;18.25;10.30;;;;;;;12.66;97.79;99838.28;5044258;28;20037;-84
2022/10/14 00:46:16;;;;;;;18.08;10.93;;;;;;;12.75;97.57;99829.50;5040649;28;20369;-77
2022/10/14 00:48:42;;;;;;;18.15;10.98;;;;;;;12.70;97.67;99822.94;5042108;28;20056;-77
2022/10/14 00:51:07;;;;;;;19.00;10.98;;;;;;;12.70;97.60;99822.94;5042786;28;20021;-85
2022/10/14 00:53:33;;;;;;;22.98;10.88;;;;;;;12.68;97.78;99830.63;5041550;28;20037;-85
2022/10/14 00:55:59;;;;;;;18.40;10.85;;;;;;;12.73;98.09;99832.53;5039741;28;20026;-77
2022/10/14 00:58:24;;;;;;;18.73;11.85;;;;;;;12.80;97.39;99827.56;5038449;28;20056;-77
2022/10/14 01:00:49;;;;;;;19.23;11.32;;;;;;;12.76;97.35;99837.44;5042673;28;20464;-85
2022/10/14 01:03:21;;;;;;;18.67;10.37;;;;;;;12.79;97.40;99839.63;5040815;28;20068;-85
2022/10/14 01:06:05;;;;;;;18.63;10.93;;;;;;;12.72;97.79;99842.66;5042568;28;20262;-82
2022/10/14 01:08:42;;;;;;;20.10;10.55;;;;;;;12.76;98.02;99836.59;5041783;28;20027;-81
2022/10/14 01:11:24;;;;;;;23.27;10.00;;;;;;;12.85;97.48;99834.97;5041655;28;20040;-82
2022/10/14 01:14:33;;;;;;;22.75;11.07;;;;;;;12.84;97.44;99833.31;5042795;28;20033;-81
2022/10/14 01:17:09;;;;;;;17.35;10.30;;;;;;;12.90;96.90;99837.66;5040767;28;20051;-82
2022/10/14 01:20:06;;;;;;;19.17;12.48;;;;;;;12.85;97.38;99834.97;5042010;28;20029;-81
2022/10/14 01:22:44;;;;;;;20.02;9.48;;;;;;;12.88;97.11;99828.91;5044365;28;20116;-84
2022/10/14 01:25:23;;;;;;;16.65;9.82;;;;;;;12.95;96.70;99829.44;5039810;28;20079;-85
2022/10/14 01:28:10;;;;;;;16.67;9.88;;;;;;;12.84;97.25;99833.31;5042403;28;20244;-85
2022/10/14 01:30:53;;;;;;;18.50;9.52;;;;;;;12.87;96.99;99829.19;5043085;28;20025;-85
2022/10/14 01:33:22;;;;;;;13.93;8.70;;;;;;;12.88;97.11;99828.91;5041604;28;20033;-84
2022/10/14 01:36:03;;;;;;;18.08;9.25;;;;;;;12.93;97.04;99825.34;5031681;28;20067;-85
2022/10/14 01:38:33;;;;;;;16.10;8.77;;;;;;;12.82;97.45;99821.81;5031123;28;20091;-84
2022/10/14 01:41:20;;;;;;;14.57;8.45;;;;;;;12.88;96.96;99815.22;5031387;28;20048;-77
2022/10/14 01:43:49;;;;;;;14.45;7.72;;;;;;;12.98;96.79;99810.84;5046513;28;20090;-77
2022/10/14 01:46:17;;;;;;;13.73;7.47;;;;;;;12.87;97.26;99810.03;5050351;28;20060;-90
2022/10/14 01:48:50;;;;;;;14.85;7.05;;;;;;;12.79;97.92;99808.72;5052772;28;20056;-90
2022/10/14 01:51:28;;;;;;;14.38;8.13;;;;;;;12.75;98.39;99799.41;5071059;28;20032;-82
2022/10/14 01:53:58;;;;;;;14.27;7.70;;;;;;;12.88;97.73;99796.06;5046419;28;20060;-81
2022/10/14 01:56:28;;;;;;;15.73;7.78;;;;;;;12.93;97.20;99798.81;5049898;28;20048;-82
2022/10/14 01:58:56;;;;;;;14.00;8.52;;;;;;;12.83;97.40;99794.16;5049874;28;20573;-81
2022/10/14 02:01:23;;;;;;;14.70;8.50;;;;;;;12.79;97.88;99789.56;5050598;28;20037;-86
2022/10/14 02:03:49;;;;;;;13.30;6.78;;;;;;;12.94;97.19;99784.00;5050597;28;20480;-87
2022/10/14 02:06:37;;;;;;;10.18;6.13;;;;;;;12.91;97.57;99794.72;5050922;28;20043;-89
2022/10/14 02:09:26;;;;;;;12.45;6.65;;;;;;;12.96;96.79;99789.19;5051239;28;20107;-89
2022/10/14 02:12:13;;;;;;;11.35;6.63;;;;;;;12.93;97.36;99787.03;5051040;28;20127;-81
2022/10/14 02:15:03;;;;;;;10.35;5.93;;;;;;;12.98;96.77;99783.47;5030303;28;20041;-81
2022/10/14 02:17:40;;;;;;;9.60;5.40;;;;;;;13.08;96.36;99788.88;5030631;28;20071;-83
2022/10/14 02:20:22;;;;;;;10.80;6.65;;;;;;;12.99;96.44;99780.44;5043223;28;20396;-83
2022/10/14 02:22:53;;;;;;;9.02;4.93;;;;;;;12.94;97.14;99777.72;5049485;28;20043;-83
2022/10/14 02:25:26;;;;;;;8.48;4.22;;;;;;;12.87;97.44;99772.56;5048854;28;20029;-83
2022/10/14 02:27:53;;;;;;;10.18;5.25;;;;;;;12.96;96.77;99770.88;5050513;28;20029;-82
2022/10/14 02:30:19;;;;;;;14.57;6.00;;;;;;;12.80;97.03;99777.50;5049454;28;20025;-81
2022/10/14 02:32:46;;;;;;;10.55;6.30;;;;;;;12.86;97.46;99765.44;5049117;28;20033;-81
2022/10/14 02:35:15;;;;;;;10.55;5.15;;;;;;;12.89;96.80;99759.44;5049277;28;20082;-81
2022/10/14 02:37:41;;;;;;;8.77;5.25;;;;;;;12.93;96.29;99762.41;5050111;28;20029;-92
2022/10/14 02:40:16;;;;;;;11.52;6.22;;;;;;;12.78;97.37;99757.81;5050732;28;20032;-93
2022/10/14 02:42:41;;;;;;;13.13;7.57;;;;;;;12.73;97.49;99762.22;5051174;28;20029;-84
2022/10/14 02:45:09;;;;;;;12.63;7.38;;;;;;;12.69;97.95;99754.84;5050175;28;20028;-84
2022/10/14 02:47:34;;;;;;;12.90;7.72;;;;;;;12.73;98.07;99756.72;5050476;28;20033;-84
2022/10/14 02:50:00;;;;;;;12.02;8.15;;;;;;;12.83;97.49;99755.06;5050644;28;20032;-84
2022/10/14 02:52:25;;;;;;;14.95;9.02;;;;;;;12.62;98.40;99749.69;5049387;28;20158;-77
2022/10/14 02:54:50;;;;;;;17.42;8.05;;;;;;;12.64;98.07;99747.47;5048887;28;20033;-77
2022/10/14 02:57:16;;;;;;;15.70;9.87;;;;;;;12.73;97.86;99743.06;5048993;28;20124;-78
2022/10/14 02:59:41;;;;;;;15.37;9.37;;;;;;;12.81;97.36;99746.31;5049095;28;20284;-77
2022/10/14 03:02:09;;;;;;;13.90;8.38;;;;;;;12.80;97.17;99736.47;5048085;28;20258;-77
2022/10/14 03:04:35;;;;;;;15.45;9.07;;;;;;;12.85;97.12;99747.41;5049874;28;20029;-85
2022/10/14 03:07:00;;;;;;;15.20;8.40;;;;;;;12.83;96.81;99739.47;5049686;28;20051;-85
2022/10/14 03:09:26;;;;;;;16.20;8.23;;;;;;;12.77;96.97;99734.31;5048706;28;20025;-78
2022/10/14 03:11:51;;;;;;;13.30;8.57;;;;;;;12.68;97.26;99732.16;5049180;28;20101;-77
2022/10/14 03:14:16;;;;;;;13.15;7.47;;;;;;;12.66;97.54;99731.59;5049529;28;20265;-87
2022/10/14 03:16:42;;;;;;;12.70;7.00;;;;;;;12.70;97.73;99729.94;5050156;28;20037;-87
2022/10/14 03:19:07;;;;;;;12.02;7.40;;;;;;;12.65;98.20;99726.44;5047609;28;20166;-79
2022/10/14 03:21:32;;;;;;;10.95;6.43;;;;;;;12.54;98.79;99720.16;5048939;28;20120;-79
2022/10/14 03:23:59;;;;;;;12.17;7.00;;;;;;;12.58;98.91;99716.59;5049653;28;20037;-91
2022/10/14 03:26:25;;;;;;;10.25;5.38;;;;;;;12.58;98.30;99718.50;5050105;28;20265;-92
2022/10/14 03:28:50;;;;;;;12.45;7.97;;;;;;;12.70;97.89;99724.47;5050212;28;20059;-91
2022/10/14 03:31:16;;;;;;;12.63;5.70;;;;;;;12.63;98.32;99717.69;5049842;28;20045;-91
2022/10/14 03:33:41;;;;;;;10.70;5.47;;;;;;;12.66;98.20;99717.94;5049150;28;20262;-91
2022/10/14 03:36:06;;;;;;;10.17;6.63;;;;;;;12.66;98.16;99717.09;5049885;28;20312;-91
2022/10/14 03:38:32;;;;;;;11.38;5.40;;;;;;;12.58;98.12;99718.50;5051588;28;20765;-81
2022/10/14 03:40:57;;;;;;;11.38;6.38;;;;;;;12.52;98.84;99717.72;5052987;28;20090;-81
2022/10/14 03:43:22;;;;;;;8.97;5.87;;;;;;;12.51;99.04;99712.53;5053480;28;20120;-85
2022/10/14 03:45:48;;;;;;;11.57;5.95;;;;;;;12.58;98.32;99718.50;5052326;28;20307;-85
2022/10/14 03:48:13;;;;;;;7.32;3.47;;;;;;;12.51;98.62;99712.53;5053635;28;20048;-86
2022/10/14 03:50:38;;;;;;;8.33;4.33;;;;;;;12.45;99.12;99719.91;5053809;28;20040;-87
2022/10/14 03:53:03;;;;;;;9.15;5.38;;;;;;;12.47;99.36;99709.50;5052819;28;20293;-82
2022/10/14 03:55:29;;;;;;;10.90;4.90;;;;;;;12.43;99.15;99701.06;5052140;28;20036;-81
2022/10/14 03:57:54;;;;;;;7.05;3.83;;;;;;;12.47;99.60;99704.03;5051915;28;20365;-79
2022/10/14 04:00:20;;;;;;;9.38;4.60;;;;;;;12.54;98.81;99706.50;5051687;28;20045;-78
2022/10/14 04:02:45;;;;;;;8.75;4.40;;;;;;;12.60;98.79;99708.13;5051400;28;20041;-81
2022/10/14 04:05:10;;;;;;;8.47;5.27;;;;;;;12.61;98.48;99705.09;5051880;28;20025;-82
2022/10/14 04:07:35;;;;;;;7.47;3.80;;;;;;;12.57;98.49;99711.41;5052650;28;20265;-84
2022/10/14 04:10:01;;;;;;;8.73;4.45;;;;;;;12.61;98.65;99707.00;5052621;28;20757;-84
2022/10/14 04:12:26;;;;;;;11.40;4.73;;;;;;;12.58;98.76;99704.84;5052396;28;20055;-82
2022/10/14 04:14:55;;;;;;;11.10;6.07;;;;;;;12.59;98.40;99706.50;5052574;28;20803;-82
2022/10/14 04:17:20;;;;;;;8.95;4.93;;;;;;;12.69;98.19;99705.63;5052210;28;20039;-91
2022/10/14 04:19:46;;;;;;;8.20;4.07;;;;;;;12.63;97.92;99702.06;5053221;28;20085;-92
2022/10/14 04:22:11;;;;;;;7.47;4.30;;;;;;;12.61;98.38;99704.25;5052763;28;20668;-91
2022/10/14 04:24:36;;;;;;;9.67;4.63;;;;;;;12.69;98.45;99709.16;5053054;28;20349;-91
2022/10/14 04:27:02;;;;;;;9.13;4.68;;;;;;;12.75;98.05;99709.16;5053230;28;20246;-91
2022/10/14 04:29:27;;;;;;;8.98;4.63;;;;;;;12.66;98.24;99707.00;5052712;28;20031;-92
2022/10/14 04:31:52;;;;;;;9.13;4.40;;;;;;;12.62;98.00;99700.44;5051707;28;20503;-91
2022/10/14 04:34:18;;;;;;;7.63;4.30;;;;;;;12.63;98.24;99701.28;5051065;28;20266;-79
2022/10/14 04:36:43;;;;;;;7.90;4.47;;;;;;;12.60;98.84;99698.00;5051417;28;20269;-79
2022/10/14 04:39:09;;;;;;;8.10;4.03;;;;;;;12.73;98.33;99702.03;5051561;28;20786;-81
2022/10/14 04:41:35;;;;;;;10.77;5.82;;;;;;;12.82;97.70;99695.97;5061376;28;20281;-81
2022/10/14 04:44:00;;;;;;;6.78;3.63;;;;;;;12.68;97.93;99693.84;5052950;28;20522;-92
2022/10/14 04:46:25;;;;;;;8.03;4.83;;;;;;;12.62;98.24;99689.50;5052650;28;20067;-91
2022/10/14 04:48:51;;;;;;;9.05;3.90;;;;;;;12.62;98.54;99689.50;5051812;28;20590;-82
2022/10/14 04:51:16;;;;;;;6.83;3.73;;;;;;;12.68;98.90;99693.03;5051627;28;20033;-82
2022/10/14 04:53:41;;;;;;;7.87;3.97;;;;;;;12.70;98.52;99696.31;5050906;28;20266;-78
2022/10/14 04:56:06;;;;;;;7.00;3.67;;;;;;;12.63;98.57;99695.81;5050313;28;20735;-78
2022/10/14 04:58:32;;;;;;;8.50;4.90;;;;;;;12.71;98.79;99689.75;5050788;28;20289;-78
2022/10/14 05:00:57;;;;;;;6.95;4.30;;;;;;;12.71;98.31;99693.28;5050634;28;20032;-78
2022/10/14 05:03:22;;;;;;;7.60;4.00;;;;;;;12.79;97.89;99688.34;5050231;28;20037;-79
2022/10/14 05:05:49;;;;;;;6.17;3.60;;;;;;;12.73;97.96;99702.03;5050985;28;20476;-78
2022/10/14 05:08:15;;;;;;;9.38;4.18;;;;;;;12.84;97.96;99691.03;5050918;28;20265;-84
2022/10/14 05:10:40;;;;;;;6.72;3.85;;;;;;;12.89;97.92;99698.41;5051748;28;20040;-84
2022/10/14 05:13:05;;;;;;;6.65;3.90;;;;;;;12.84;97.80;99691.03;5051820;28;20438;-92
2022/10/14 05:15:30;;;;;;;7.30;4.18;;;;;;;12.70;99.07;99686.19;5053220;28;20087;-91
2022/10/14 05:17:56;;;;;;;7.30;4.13;;;;;;;12.75;98.79;99681.78;5052139;28;20035;-81
2022/10/14 05:20:21;;;;;;;7.95;3.88;;;;;;;12.68;99.07;99691.13;5051150;28;20132;-82
2022/10/14 05:22:46;;;;;;;7.70;4.68;;;;;;;12.72;99.29;99684.00;5050517;28;20029;-78
2022/10/14 05:25:12;;;;;;;7.32;3.45;;;;;;;12.76;98.97;99680.69;5050506;28;20036;-79
2022/10/14 05:27:37;;;;;;;6.63;2.90;;;;;;;12.78;98.78;99676.56;5050277;28;20120;-77
2022/10/14 05:30:03;;;;;;;7.07;3.70;;;;;;;12.82;98.88;99680.38;5050469;28;20104;-77
2022/10/14 05:32:28;;;;;;;6.93;3.50;;;;;;;12.89;98.22;99682.00;5049935;28;20027;-81
2022/10/14 05:34:54;;;;;;;5.75;3.13;;;;;;;12.87;98.46;99673.25;5050771;28;20037;-82
2022/10/14 05:37:19;;;;;;;7.95;3.22;;;;;;;12.88;98.82;99670.22;5051462;28;20082;-78
2022/10/14 05:39:44;;;;;;;6.50;3.67;;;;;;;12.99;97.64;99661.97;5050199;28;20037;-77
2022/10/14 05:42:09;;;;;;;7.37;4.60;;;;;;;13.01;97.48;99667.97;5049838;28;20262;-92
2022/10/14 05:44:35;;;;;;;6.43;3.75;;;;;;;13.01;97.40;99660.56;5051990;28;20764;-92
2022/10/14 05:47:00;;;;;;;5.97;3.60;;;;;;;13.02;96.88;99662.19;5052083;28;20476;-92
2022/10/14 05:49:25;;;;;;;5.90;3.45;;;;;;;12.98;97.10;99665.81;5050233;28;20116;-77
2022/10/14 05:51:51;;;;;;;6.40;3.03;;;;;;;13.02;97.16;99661.38;5036336;28;20095;-77
2022/10/14 05:54:16;;;;;;;5.67;2.60;;;;;;;12.87;98.32;99652.19;5049934;28;20262;-82
2022/10/14 05:56:41;;;;;;;7.47;3.85;;;;;;;12.93;98.10;99655.69;5050475;28;20725;-81
2022/10/14 05:59:09;;;;;;;8.60;3.25;;;;;;;12.93;97.35;99651.06;5051322;28;20033;-88
2022/10/14 06:01:35;;;;;;;6.53;2.58;;;;;;;12.95;97.41;99657.06;5050556;28;20064;-92
2022/10/14 06:04:00;;;;;;;5.97;3.40;;;;;;;12.88;98.00;99656.53;5051144;28;20040;-92
2022/10/14 06:06:26;;;;;;;5.70;3.28;;;;;;;12.90;98.13;99646.13;5051265;28;20028;-93
2022/10/14 06:08:53;;;;;;;5.53;2.83;;;;;;;12.92;97.56;99654.06;5051359;28;20440;-92
2022/10/14 06:11:18;;;;;;;6.57;3.33;;;;;;;12.81;98.56;99639.63;5051567;28;20045;-93
2022/10/14 06:13:44;;;;;;;5.15;2.53;;;;;;;12.77;98.33;99644.03;5050812;28;20450;-92
2022/10/14 06:16:10;;;;;;;6.43;3.23;;;;;;;12.82;98.62;99652.19;5051398;28;20068;-92
2022/10/14 06:18:36;;;;;;;6.25;3.08;;;;;;;12.93;97.93;99650.22;5051517;28;20265;-92
2022/10/14 06:21:01;;;;;;;6.18;2.90;;;;;;;12.86;98.28;99644.25;5069771;28;20119;-93
2022/10/14 06:23:27;;;;;;;5.82;2.65;;;;;;;12.94;98.31;99636.25;5057974;28;20036;-86
2022/10/14 06:25:52;;;;;;;10.75;3.83;;;;;;;13.02;97.97;99644.97;5050586;28;20033;-86
2022/10/14 06:28:17;;;;;;;8.60;3.55;;;;;;;12.91;98.07;99639.56;5050822;28;20044;-86
2022/10/14 06:30:49;;;;;;;6.13;3.70;;;;;;;12.86;98.73;99639.59;5050750;28;20056;-86
2022/10/14 06:33:14;;;;;;;7.47;3.80;;;;;;;12.96;98.39;99645.00;5048621;28;20502;-82
2022/10/14 06:35:39;;;;;;;9.23;3.10;;;;;;;13.00;98.05;99630.75;5049982;28;20041;-81
2022/10/14 06:38:05;;;;;;;8.63;4.10;;;;;;;13.06;97.84;99624.13;5049586;28;20853;-81
2022/10/14 06:40:30;;;;;;;6.20;3.40;;;;;;;13.13;97.29;99632.84;5049919;28;20269;-81
2022/10/14 06:42:57;;;;;;;6.67;3.97;;;;;;;13.01;98.37;99635.94;5049672;28;20415;-82
2022/10/14 06:45:23;;;;;;;7.35;4.10;;;;;;;13.04;98.20;99632.63;5049323;28;20250;-82
2022/10/14 06:47:48;;;;;;;8.18;3.90;;;;;;;12.95;99.24;99623.41;5049502;28;20044;-85
2022/10/14 06:50:13;;;;;;;6.80;3.57;;;;;;;12.95;98.94;99624.22;5050050;28;20028;-85
2022/10/14 06:52:39;;;;;;;7.57;4.13;;;;;;;12.90;99.54;99613.31;5049762;28;20261;-85
2022/10/14 06:55:04;;;;;;;7.50;4.23;;;;;;;12.95;99.19;99615.19;5050045;28;20098;-85
2022/10/14 06:57:30;;;;;;;12.35;4.05;;;;;;;12.92;99.22;99624.78;5049709;28;20293;-86
2022/10/14 06:59:55;;;;;;;9.63;4.47;;;;;;;13.14;98.35;99615.31;5049984;28;20033;-86
2022/10/14 07:02:20;;;;;;;5.30;3.20;;;;;;;13.04;98.43;99612.66;5049832;28;20040;-86
2022/10/14 07:04:46;;;;;;;6.03;3.27;;;;;;;12.96;98.95;99609.44;5049895;28;20029;-85
2022/10/14 07:07:11;;;;;;;5.73;3.33;;;;;;;13.13;98.30;99615.59;5044430;28;20270;-85
2022/10/14 07:09:36;;;;;;;8.18;4.95;;;;;;;12.98;98.60;99605.59;5040745;28;20278;-86
2022/10/14 07:12:02;;;;;;;7.18;4.30;;;;;;;13.12;98.69;99603.84;5040338;28;20037;-85
2022/10/14 07:14:27;;;;;;;8.63;3.45;;;;;;;13.14;97.33;99601.63;5045562;28;20087;-86
2022/10/14 07:16:52;;;;;;;6.77;4.00;;;;;;;13.16;97.94;99615.06;5041703;28;20307;-86
2022/10/14 07:19:18;;;;;;;7.97;3.10;;;;;;;13.04;97.77;99609.91;5045501;28;20263;-84
2022/10/14 07:21:45;;;;;;;5.05;2.67;;;;;;;13.05;97.85;99609.66;5043047;28;20021;-84
2022/10/14 07:24:11;;;;;;;5.85;2.80;;;;;;;13.25;97.55;99612.50;5048192;28;20104;-92
2022/10/14 07:26:36;;;;;;;9.95;3.20;;;;;;;13.40;96.81;99608.81;5042418;28;20043;-93
2022/10/14 07:29:03;;;;;;;12.98;4.72;;;;;;;13.37;95.87;99610.22;5034959;28;20040;-84
2022/10/14 07:31:29;;;;;;;9.48;4.10;;;;;;;13.31;96.18;99619.56;5034601;28;20029;-84
2022/10/14 07:33:54;;;;;;;19.23;3.53;;;;;;;13.34;96.83;99618.19;5048632;28;20113;-78
2022/10/14 07:36:19;;;;;;;6.00;3.03;;;;;;;13.33;96.84;99611.88;5052720;28;20258;-76
2022/10/14 07:38:44;;;;;;;5.55;2.85;;;;;;;13.23;97.08;99606.50;5053445;28;20313;-81
2022/10/14 07:41:16;;;;;;;7.78;3.28;;;;;;;13.28;96.86;99607.25;5053637;28;20070;-81
2022/10/14 07:43:43;;;;;;;7.43;3.13;;;;;;;13.23;97.11;99604.59;5054226;28;20121;-81
2022/10/14 07:46:09;;;;;;;9.48;3.88;;;;;;;13.20;96.91;99599.66;5051934;28;20029;-81
2022/10/14 07:48:35;;;;;;;6.60;3.53;;;;;;;13.24;96.80;99605.41;5052745;28;20056;-86
2022/10/14 07:51:01;;;;;;;8.32;3.25;;;;;;;13.29;97.07;99608.09;5052828;28;20032;-86
2022/10/14 07:53:27;;;;;;;6.35;3.28;;;;;;;13.28;97.18;99595.50;5053639;28;20036;-83
2022/10/14 07:55:55;;;;;;;6.05;3.05;;;;;;;13.27;96.73;99593.88;5053291;28;20048;-84
2022/10/14 07:58:23;;;;;;;5.35;3.03;;;;;;;13.36;96.64;99597.63;5052702;28;20044;-78
2022/10/14 08:00:49;;;;;;;7.32;3.95;;;;;;;13.21;97.14;99593.09;5052367;28;20033;-78
2022/10/14 08:03:16;;;;;;;5.00;2.78;;;;;;;13.18;97.83;99597.22;5051431;28;20057;-77
2022/10/14 08:05:41;;;;;;;6.10;3.13;;;;;;;13.23;97.90;99596.38;5052270;28;20598;-76
2022/10/14 08:08:07;;;;;;;4.55;3.03;;;;;;;13.25;98.00;99607.03;5052915;28;20040;-83
2022/10/14 08:10:34;;;;;;;4.68;2.58;;;;;;;13.36;97.25;99600.38;5053257;28;20120;-83
2022/10/14 08:12:59;;;;;;;3.30;1.83;;;;;;;13.50;97.59;99600.53;5053058;28;20032;-84
2022/10/14 08:15:29;;;;;;;3.80;2.13;;;;;;;13.50;96.21;99603.25;5052998;28;20383;-84
2022/10/14 08:17:55;;;;;;;5.93;1.83;;;;;;;13.49;96.54;99601.59;5052668;28;20349;-79
2022/10/14 08:20:20;;;;;;;5.85;1.83;;;;;;;13.46;96.35;99596.72;5051747;28;20029;-78
2022/10/14 08:22:45;;;;;;;4.70;1.87;;;;;;;13.46;96.33;99588.50;5051830;28;20035;-85
2022/10/14 08:25:12;;;;;;;3.80;1.73;;;;;;;13.53;96.58;99579.94;5052975;28;20250;-85
2022/10/14 08:27:37;;;;;;;3.83;1.95;;;;;;;13.39;97.02;99586.09;5053518;28;20262;-78
2022/10/14 08:30:04;;;;;;;5.00;1.87;;;;;;;13.47;97.13;99570.13;5051746;28;20067;-78
2022/10/14 08:32:29;;;;;;;3.63;2.03;;;;;;;13.33;97.34;99572.72;5051744;28;20341;-93
2022/10/14 08:34:54;;;;;;;4.72;1.02;;;;;;;13.47;97.07;99579.16;5048940;28;20132;-93
2022/10/14 08:37:20;;;;;;;3.47;1.52;;;;;;;13.41;96.77;99578.41;5040154;28;20071;-81
2022/10/14 08:39:45;;;;;;;8.48;2.17;;;;;;;13.51;97.44;99579.41;5042703;28;20600;-91
2022/10/14 08:42:38;;;;;;;3.33;1.47;;;;;;;13.48;97.17;99571.78;5042454;28;20044;-78
2022/10/14 08:45:09;;;;;;;4.20;2.00;;;;;;;13.49;97.04;99574.22;5040439;28;20251;-78
2022/10/14 08:47:40;;;;;;;3.97;1.52;;;;;;;13.45;97.27;99586.03;5042465;28;20557;-83
2022/10/14 08:50:29;;;;;;;2.75;1.15;;;;;;;13.62;96.58;99567.28;5047287;28;20128;-83
2022/10/14 08:53:03;;;;;;;2.58;1.48;;;;;;;13.65;96.24;99563.94;5052030;28;20068;-83
2022/10/14 08:55:42;;;;;;;2.13;1.25;;;;;;;13.56;96.96;99571.19;5052109;28;20037;-83
2022/10/14 08:58:30;;;;;;;4.05;1.58;;;;;;;13.65;96.32;99577.66;5035019;28;20139;-81
2022/10/14 09:00:57;;;;;;;2.47;1.20;;;;;;;13.71;96.33;99570.19;5031660;28;20123;-80
2022/10/14 09:03:31;;;;;;;2.38;1.02;;;;;;;13.63;96.28;99568.91;5042981;28;20094;-80
2022/10/14 09:06:01;;;;;;;3.20;1.20;;;;;;;13.72;96.34;99562.78;5051645;28;20029;-81
2022/10/14 09:08:32;;;;;;;2.47;1.50;;;;;;;13.73;95.94;99550.75;5051606;28;20099;-83
2022/10/14 09:10:58;;;;;;;2.40;1.30;;;;;;;13.80;96.29;99540.25;5051735;28;20468;-83
2022/10/14 09:13:35;;;;;;;2.78;1.08;;;;;;;13.83;95.42;99544.31;5051612;28;20271;-91
2022/10/14 09:16:22;;;;;;;2.85;1.05;;;;;;;13.97;95.31;99552.66;5052403;28;20021;-91
2022/10/14 09:18:55;;;;;;;4.35;1.27;;;;;;;13.93;95.54;99540.66;5052792;28;20120;-90
2022/10/14 09:21:26;;;;;;;1.77;0.95;;;;;;;13.95;95.35;99535.69;5052030;28;20105;-90
2022/10/14 09:24:10;;;;;;;2.92;1.25;;;;;;;13.83;96.07;99528.69;5052023;28;20029;-90
2022/10/14 09:26:42;;;;;;;2.22;0.90;;;;;;;14.00;95.98;99538.34;5052296;28;20025;-91
2022/10/14 09:29:25;;;;;;;2.35;0.90;;;;;;;14.01;95.00;99527.09;5051792;28;20028;-90
2022/10/14 09:31:54;;;;;;;2.53;1.00;;;;;;;13.86;95.25;99528.13;5052430;28;20044;-90
2022/10/14 09:34:29;;;;;;;2.40;1.00;;;;;;;13.94;95.40;99529.38;5050337;28;20044;-89
2022/10/14 09:36:58;;;;;;;1.98;0.93;;;;;;;14.00;95.23;99527.38;5050830;28;20079;-90
2022/10/14 09:39:23;;;;;;;1.77;0.70;;;;;;;14.02;95.03;99530.66;5051850;28;20028;-85
2022/10/14 09:41:52;;;;;;;1.63;0.75;;;;;;;14.01;95.12;99529.03;5052213;28;20032;-86
2022/10/14 09:44:24;;;;;;;1.85;0.82;;;;;;;13.98;96.39;99529.59;5047047;28;20033;-86
2022/10/14 09:46:56;;;;;;;1.25;0.55;;;;;;;14.01;95.54;99529.03;5040881;28;20104;-85
2022/10/14 09:49:46;;;;;;;1.80;0.90;;;;;;;13.93;96.16;99527.75;5045531;28;20038;-78
2022/10/14 09:52:23;;;;;;;4.20;0.90;;;;;;;14.01;95.26;99526.28;5049596;28;20124;-78
2022/10/14 09:54:57;;;;;;;4.22;1.13;;;;;;;14.01;94.91;99515.34;5049803;28;20039;-77
2022/10/14 09:57:24;;;;;;;2.72;1.15;;;;;;;14.22;94.74;99518.59;5048385;28;20657;-79
2022/10/14 10:00:02;;;;;;;4.53;1.08;;;;;;;14.33;94.94;99518.47;5050017;28;20029;-78
2022/10/14 10:02:40;;;;;;;2.42;1.17;;;;;;;14.24;94.14;99510.91;5048918;28;20036;-85
2022/10/14 10:05:21;;;;;;;4.18;1.55;;;;;;;14.34;94.25;99509.94;5031044;28;20484;-85
2022/10/14 10:08:09;;;;;;;1.88;0.82;;;;;;;14.33;93.85;99513.78;5031525;28;20033;-79
2022/10/14 10:10:35;;;;;;;2.13;0.90;;;;;;;14.34;93.97;99504.44;5029674;28;20300;-79
2022/10/14 10:13:01;;;;;;;2.35;1.15;;;;;;;14.36;93.69;99491.25;5040206;28;20109;-80
2022/10/14 10:15:27;;;;;;;2.40;1.38;;;;;;;14.34;93.61;99506.38;5049900;28;20033;-79
2022/10/14 10:17:52;;;;;;;2.90;1.25;;;;;;;14.40;93.71;99502.44;5049742;28;20511;-77
2022/10/14 10:20:30;;;;;;;2.20;1.20;;;;;;;14.38;93.64;99487.41;5049963;28;20076;-76
2022/10/14 10:22:57;;;;;;;2.08;1.27;;;;;;;14.46;93.46;99506.75;5049391;28;20124;-78
2022/10/14 10:25:27;;;;;;;4.72;2.00;;;;;;;14.50;93.21;99492.44;5049459;28;20067;-79
2022/10/14 10:27:56;;;;;;;4.25;1.25;;;;;;;14.48;93.62;99488.06;5050030;28;20033;-80
2022/10/14 10:30:31;;;;;;;1.92;1.10;;;;;;;14.45;93.42;99482.34;5048859;28;20021;-80
2022/10/14 10:33:12;;;;;;;2.35;1.10;;;;;;;14.50;93.25;99489.69;5049274;28;20087;-77
2022/10/14 10:35:51;;;;;;;2.75;0.98;;;;;;;14.56;92.74;99483.81;5049302;28;20032;-77
2022/10/14 10:38:19;;;;;;;3.72;1.15;;;;;;;14.51;93.24;99483.09;5048202;28;20055;-77
2022/10/14 10:41:03;;;;;;;2.60;1.42;;;;;;;14.46;93.26;99481.25;5048027;28;20047;-77
2022/10/14 10:43:58;;;;;;;2.53;1.10;;;;;;;14.38;93.44;99479.19;5048867;28;20502;-83
2022/10/14 10:46:50;;;;;;;2.38;1.20;;;;;;;14.46;92.99;99478.50;5050212;28;20076;-84
2022/10/14 10:49:52;;;;;;;3.88;1.40;;;;;;;14.48;93.50;99465.31;5049669;28;20040;-77
2022/10/14 10:52:31;;;;;;;2.17;1.02;;;;;;;14.51;92.75;99464.72;5048794;28;20072;-77
2022/10/14 10:55:27;;;;;;;6.78;2.40;;;;;;;14.67;92.56;99467.19;5049347;28;20105;-77
2022/10/14 10:58:18;;;;;;;2.80;1.45;;;;;;;14.69;92.53;99464.97;5047969;28;20053;-76
2022/10/14 11:00:56;;;;;;;3.80;1.92;;;;;;;14.66;92.14;99460.09;5049022;28;20448;-76
2022/10/14 11:04:10;;;;;;;5.25;2.05;;;;;;;14.58;92.38;99454.16;5048435;28;20044;-76
2022/10/14 11:13:15;;;;;;;6.45;3.35;;;;;;;14.58;92.42;99443.19;5044555;28;20068;-80
2022/10/14 11:16:05;;;;;;;5.10;2.38;;;;;;;14.45;92.12;99447.53;5029207;28;20029;-79
2022/10/14 11:18:47;;;;;;;4.63;2.10;;;;;;;14.48;92.19;99435.94;5029759;28;20029;-84
2022/10/14 11:21:40;;;;;;;5.60;2.58;;;;;;;14.62;91.69;99428.88;5030352;28;20034;-84
2022/10/14 11:24:09;;;;;;;4.75;2.33;;;;;;;14.68;91.32;99425.78;5046950;28;20116;-84
2022/10/14 11:26:41;;;;;;;6.05;2.88;;;;;;;14.69;91.29;99421.91;5050137;28;20065;-85
2022/10/14 11:29:21;;;;;;;7.85;2.78;;;;;;;14.73;91.45;99430.34;5050210;28;20037;-85
2022/10/14 11:32:06;;;;;;;8.02;3.80;;;;;;;14.86;90.67;99425.22;5050026;28;20029;-85
2022/10/14 11:34:41;;;;;;;10.55;3.92;;;;;;;14.81;90.37;99424.16;5050182;28;20048;-85
2022/10/14 11:37:28;;;;;;;5.88;2.80;;;;;;;14.96;90.28;99425.03;5049868;28;20101;-84
2022/10/14 11:39:58;;;;;;;9.73;2.65;;;;;;;14.89;90.30;99419.94;5049707;28;20060;-85
2022/10/14 11:42:47;;;;;;;5.57;2.92;;;;;;;15.07;90.27;99422.91;5049683;28;20033;-86
2022/10/14 11:45:15;;;;;;;6.72;3.47;;;;;;;15.08;89.91;99415.47;5049893;28;20033;-86
2022/10/14 11:47:45;;;;;;;6.20;3.42;;;;;;;14.99;90.42;99407.94;5050031;28;20045;-85
2022/10/14 11:50:24;;;;;;;7.75;3.88;;;;;;;15.03;90.05;99414.44;5049879;28;20021;-85